sensor_id;sensor_type;location;lat;lon;timestamp;pressure;altitude;pressure_sealevel;temperature
61977;BMP280;45905;50.570;10.428;2024-01-25T00:01:32;98583.88;;;8.45
61977;BMP280;45905;50.570;10.428;2024-01-25T00:04:00;98588.94;;;8.45
61977;BMP280;45905;50.570;10.428;2024-01-25T00:06:28;98592.25;;;8.45
61977;BMP280;45905;50.570;10.428;2024-01-25T00:08:56;98582.97;;;8.46
61977;BMP280;45905;50.570;10.428;2024-01-25T00:11:24;98584.69;;;8.45
61977;BMP280;45905;50.570;10.428;2024-01-25T00:13:52;98580.66;;;8.43
61977;BMP280;45905;50.570;10.428;2024-01-25T00:16:20;98587.31;;;8.44
61977;BMP280;45905;50.570;10.428;2024-01-25T00:18:47;98584.78;;;8.44
61977;BMP280;45905;50.570;10.428;2024-01-25T00:21:15;98584.13;;;8.42
61977;BMP280;45905;50.570;10.428;2024-01-25T00:23:43;98581.59;;;8.42
61977;BMP280;45905;50.570;10.428;2024-01-25T00:26:11;98580.94;;;8.40
61977;BMP280;45905;50.570;10.428;2024-01-25T00:28:38;98586.00;;;8.40
61977;BMP280;45905;50.570;10.428;2024-01-25T00:31:06;98586.91;;;8.39
61977;BMP280;45905;50.570;10.428;2024-01-25T00:33:34;98579.34;;;8.39
61977;BMP280;45905;50.570;10.428;2024-01-25T00:36:03;98584.63;;;8.36
61977;BMP280;45905;50.570;10.428;2024-01-25T00:38:31;98583.94;;;8.34
61977;BMP280;45905;50.570;10.428;2024-01-25T00:40:59;98584.63;;;8.36
61977;BMP280;45905;50.570;10.428;2024-01-25T00:43:27;98593.25;;;8.34
61977;BMP280;45905;50.570;10.428;2024-01-25T00:45:56;98602.41;;;8.35
61977;BMP280;45905;50.570;10.428;2024-01-25T00:48:24;98595.53;;;8.37
61977;BMP280;45905;50.570;10.428;2024-01-25T00:50:52;98594.03;;;8.34
61977;BMP280;45905;50.570;10.428;2024-01-25T00:53:20;98606.66;;;8.34
61977;BMP280;45905;50.570;10.428;2024-01-25T00:55:48;98601.88;;;8.31
61977;BMP280;45905;50.570;10.428;2024-01-25T00:58:17;98599.59;;;8.28
61977;BMP280;45905;50.570;10.428;2024-01-25T01:00:45;98596.63;;;8.23
61977;BMP280;45905;50.570;10.428;2024-01-25T01:03:15;98605.81;;;8.24
61977;BMP280;45905;50.570;10.428;2024-01-25T01:05:46;98609.25;;;8.23
61977;BMP280;45905;50.570;10.428;2024-01-25T01:08:14;98613.66;;;8.21
61977;BMP280;45905;50.570;10.428;2024-01-25T01:10:43;98614.56;;;8.20
61977;BMP280;45905;50.570;10.428;2024-01-25T01:13:11;98623.59;;;8.23
61977;BMP280;45905;50.570;10.428;2024-01-25T01:15:40;98611.38;;;8.19
61977;BMP280;45905;50.570;10.428;2024-01-25T01:18:07;98610.56;;;8.18
61977;BMP280;45905;50.570;10.428;2024-01-25T01:20:36;98614.69;;;8.19
61977;BMP280;45905;50.570;10.428;2024-01-25T01:23:04;98614.13;;;8.16
61977;BMP280;45905;50.570;10.428;2024-01-25T01:25:31;98602.81;;;8.10
61977;BMP280;45905;50.570;10.428;2024-01-25T01:27:59;98614.75;;;8.08
61977;BMP280;45905;50.570;10.428;2024-01-25T01:30:27;98613.72;;;8.11
61977;BMP280;45905;50.570;10.428;2024-01-25T01:32:54;98612.09;;;8.10
61977;BMP280;45905;50.570;10.428;2024-01-25T01:35:22;98608.78;;;8.09
61977;BMP280;45905;50.570;10.428;2024-01-25T01:37:50;98608.47;;;8.03
61977;BMP280;45905;50.570;10.428;2024-01-25T01:40:18;98611.94;;;8.02
61977;BMP280;45905;50.570;10.428;2024-01-25T01:42:46;98614.13;;;7.96
61977;BMP280;45905;50.570;10.428;2024-01-25T01:45:17;98604.81;;;7.96
61977;BMP280;45905;50.570;10.428;2024-01-25T01:47:44;98611.44;;;7.97
61977;BMP280;45905;50.570;10.428;2024-01-25T01:50:13;98609.63;;;7.99
61977;BMP280;45905;50.570;10.428;2024-01-25T01:52:41;98612.63;;;7.93
61977;BMP280;45905;50.570;10.428;2024-01-25T01:55:10;98621.25;;;7.91
61977;BMP280;45905;50.570;10.428;2024-01-25T01:57:38;98602.78;;;7.90
61977;BMP280;45905;50.570;10.428;2024-01-25T02:00:09;98601.06;;;7.91
61977;BMP280;45905;50.570;10.428;2024-01-25T02:02:39;98606.78;;;7.93
61977;BMP280;45905;50.570;10.428;2024-01-25T02:05:07;98606.91;;;7.91
61977;BMP280;45905;50.570;10.428;2024-01-25T02:07:35;98609.31;;;7.93
61977;BMP280;45905;50.570;10.428;2024-01-25T02:10:04;98599.56;;;7.88
61977;BMP280;45905;50.570;10.428;2024-01-25T02:12:32;98600.53;;;7.87
61977;BMP280;45905;50.570;10.428;2024-01-25T02:14:59;98603.28;;;7.84
61977;BMP280;45905;50.570;10.428;2024-01-25T02:17:27;98591.81;;;7.80
61977;BMP280;45905;50.570;10.428;2024-01-25T02:19:55;98588.25;;;7.83
61977;BMP280;45905;50.570;10.428;2024-01-25T02:22:23;98600.44;;;7.78
61977;BMP280;45905;50.570;10.428;2024-01-25T02:24:50;98589.56;;;7.78
61977;BMP280;45905;50.570;10.428;2024-01-25T02:27:21;98609.16;;;7.74
61977;BMP280;45905;50.570;10.428;2024-01-25T02:29:49;98599.06;;;7.74
61977;BMP280;45905;50.570;10.428;2024-01-25T02:32:17;98592.66;;;7.70
61977;BMP280;45905;50.570;10.428;2024-01-25T02:34:45;98586.59;;;7.73
61977;BMP280;45905;50.570;10.428;2024-01-25T02:37:13;98601.84;;;7.71
61977;BMP280;45905;50.570;10.428;2024-01-25T02:39:42;98601.03;;;7.71
61977;BMP280;45905;50.570;10.428;2024-01-25T02:42:10;98607.94;;;7.69
61977;BMP280;45905;50.570;10.428;2024-01-25T02:44:38;98607.25;;;7.67
61977;BMP280;45905;50.570;10.428;2024-01-25T02:47:06;98609.31;;;7.62
61977;BMP280;45905;50.570;10.428;2024-01-25T02:49:33;98611.19;;;7.60
61977;BMP280;45905;50.570;10.428;2024-01-25T02:52:00;98622.19;;;7.59
61977;BMP280;45905;50.570;10.428;2024-01-25T02:54:28;98622.31;;;7.58
61977;BMP280;45905;50.570;10.428;2024-01-25T02:56:56;98608.22;;;7.55
61977;BMP280;45905;50.570;10.428;2024-01-25T02:59:24;98608.47;;;7.52
61977;BMP280;45905;50.570;10.428;2024-01-25T03:01:54;98614.66;;;7.48
61977;BMP280;45905;50.570;10.428;2024-01-25T03:04:22;98614.22;;;7.43
61977;BMP280;45905;50.570;10.428;2024-01-25T03:06:49;98622.59;;;7.44
61977;BMP280;45905;50.570;10.428;2024-01-25T03:09:17;98620.28;;;7.41
61977;BMP280;45905;50.570;10.428;2024-01-25T03:11:45;98622.25;;;7.38
61977;BMP280;45905;50.570;10.428;2024-01-25T03:14:12;98613.34;;;7.34
61977;BMP280;45905;50.570;10.428;2024-01-25T03:16:40;98612.66;;;7.32
61977;BMP280;45905;50.570;10.428;2024-01-25T03:19:07;98614.25;;;7.33
61977;BMP280;45905;50.570;10.428;2024-01-25T03:21:35;98605.78;;;7.34
61977;BMP280;45905;50.570;10.428;2024-01-25T03:24:02;98600.63;;;7.35
61977;BMP280;45905;50.570;10.428;2024-01-25T03:26:30;98598.22;;;7.34
61977;BMP280;45905;50.570;10.428;2024-01-25T03:28:58;98601.88;;;7.30
61977;BMP280;45905;50.570;10.428;2024-01-25T03:31:26;98601.19;;;7.28
61977;BMP280;45905;50.570;10.428;2024-01-25T03:33:54;98605.31;;;7.29
61977;BMP280;45905;50.570;10.428;2024-01-25T03:36:22;98602.00;;;7.28
61977;BMP280;45905;50.570;10.428;2024-01-25T03:38:50;98607.03;;;7.28
61977;BMP280;45905;50.570;10.428;2024-01-25T03:41:17;98601.56;;;7.23
61977;BMP280;45905;50.570;10.428;2024-01-25T03:43:45;98604.19;;;7.22
61977;BMP280;45905;50.570;10.428;2024-01-25T03:46:13;98607.63;;;7.21
61977;BMP280;45905;50.570;10.428;2024-01-25T03:48:41;98602.03;;;7.18
61977;BMP280;45905;50.570;10.428;2024-01-25T03:51:09;98608.09;;;7.15
61977;BMP280;45905;50.570;10.428;2024-01-25T03:53:37;98598.94;;;7.14
61977;BMP280;45905;50.570;10.428;2024-01-25T03:56:13;98618.63;;;7.09
61977;BMP280;45905;50.570;10.428;2024-01-25T03:58:44;98624.25;;;7.13
61977;BMP280;45905;50.570;10.428;2024-01-25T04:01:13;98643.38;;;7.15
61977;BMP280;45905;50.570;10.428;2024-01-25T04:03:41;98636.50;;;7.17
61977;BMP280;45905;50.570;10.428;2024-01-25T04:06:10;98649.22;;;7.16
61977;BMP280;45905;50.570;10.428;2024-01-25T04:08:37;98656.66;;;7.17
61977;BMP280;45905;50.570;10.428;2024-01-25T04:11:05;98670.84;;;7.18
61977;BMP280;45905;50.570;10.428;2024-01-25T04:13:33;98674.97;;;7.19
61977;BMP280;45905;50.570;10.428;2024-01-25T04:16:00;98682.53;;;7.19
61977;BMP280;45905;50.570;10.428;2024-01-25T04:18:28;98686.66;;;7.20
61977;BMP280;45905;50.570;10.428;2024-01-25T04:20:56;98680.81;;;7.20
61977;BMP280;45905;50.570;10.428;2024-01-25T04:23:23;98686.44;;;7.23
61977;BMP280;45905;50.570;10.428;2024-01-25T04:25:50;98697.22;;;7.25
61977;BMP280;45905;50.570;10.428;2024-01-25T04:28:19;98700.53;;;7.25
61977;BMP280;45905;50.570;10.428;2024-01-25T04:30:47;98691.25;;;7.26
61977;BMP280;45905;50.570;10.428;2024-01-25T04:33:14;98686.06;;;7.27
61977;BMP280;45905;50.570;10.428;2024-01-25T04:35:43;98692.81;;;7.27
61977;BMP280;45905;50.570;10.428;2024-01-25T04:38:11;98705.56;;;7.25
61977;BMP280;45905;50.570;10.428;2024-01-25T04:40:38;98706.47;;;7.24
61977;BMP280;45905;50.570;10.428;2024-01-25T04:43:06;98695.59;;;7.24
61977;BMP280;45905;50.570;10.428;2024-01-25T04:45:33;98703.28;;;7.23
61977;BMP280;45905;50.570;10.428;2024-01-25T04:48:01;98704.88;;;7.23
61977;BMP280;45905;50.570;10.428;2024-01-25T04:50:29;98722.41;;;7.25
61977;BMP280;45905;50.570;10.428;2024-01-25T04:52:57;98713.94;;;7.26
61977;BMP280;45905;50.570;10.428;2024-01-25T04:55:26;98715.66;;;7.25
61977;BMP280;45905;50.570;10.428;2024-01-25T04:57:54;98707.41;;;7.23
61977;BMP280;45905;50.570;10.428;2024-01-25T05:00:23;98719.31;;;7.22
61977;BMP280;45905;50.570;10.428;2024-01-25T05:02:50;98722.53;;;7.23
61977;BMP280;45905;50.570;10.428;2024-01-25T05:05:18;98697.31;;;7.23
61977;BMP280;45905;50.570;10.428;2024-01-25T05:07:46;98703.38;;;7.21
61977;BMP280;45905;50.570;10.428;2024-01-25T05:10:14;98699.25;;;7.20
61977;BMP280;45905;50.570;10.428;2024-01-25T05:12:42;98700.16;;;7.19
61977;BMP280;45905;50.570;10.428;2024-01-25T05:15:11;98710.13;;;7.21
61977;BMP280;45905;50.570;10.428;2024-01-25T05:17:39;98693.53;;;7.18
61977;BMP280;45905;50.570;10.428;2024-01-25T05:20:07;98706.81;;;7.20
61977;BMP280;45905;50.570;10.428;2024-01-25T05:22:35;98723.53;;;7.21
61977;BMP280;45905;50.570;10.428;2024-01-25T05:25:07;98724.22;;;7.23
61977;BMP280;45905;50.570;10.428;2024-01-25T05:27:35;98721.03;;;7.21
61977;BMP280;45905;50.570;10.428;2024-01-25T05:30:04;98727.44;;;7.14
61977;BMP280;45905;50.570;10.428;2024-01-25T05:32:32;98737.31;;;7.17
61977;BMP280;45905;50.570;10.428;2024-01-25T05:34:59;98738.31;;;7.15
61977;BMP280;45905;50.570;10.428;2024-01-25T05:37:28;98736.72;;;7.14
61977;BMP280;45905;50.570;10.428;2024-01-25T05:39:56;98746.09;;;7.12
61977;BMP280;45905;50.570;10.428;2024-01-25T05:42:23;98749.66;;;7.09
61977;BMP280;45905;50.570;10.428;2024-01-25T05:44:52;98754.69;;;7.09
61977;BMP280;45905;50.570;10.428;2024-01-25T05:47:19;98753.09;;;7.08
61977;BMP280;45905;50.570;10.428;2024-01-25T05:49:47;98762.25;;;7.09
61977;BMP280;45905;50.570;10.428;2024-01-25T05:52:16;98757.19;;;7.09
61977;BMP280;45905;50.570;10.428;2024-01-25T05:54:45;98758.16;;;7.08
61977;BMP280;45905;50.570;10.428;2024-01-25T05:57:13;98768.22;;;7.08
61977;BMP280;45905;50.570;10.428;2024-01-25T05:59:41;98766.63;;;7.07
61977;BMP280;45905;50.570;10.428;2024-01-25T06:02:09;98759.97;;;7.06
61977;BMP280;45905;50.570;10.428;2024-01-25T06:04:37;98765.00;;;7.06
61977;BMP280;45905;50.570;10.428;2024-01-25T06:07:05;98775.09;;;7.06
61977;BMP280;45905;50.570;10.428;2024-01-25T06:09:33;98779.09;;;7.09
61977;BMP280;45905;50.570;10.428;2024-01-25T06:12:00;98786.53;;;7.10
61977;BMP280;45905;50.570;10.428;2024-01-25T06:14:29;98792.63;;;7.08
61977;BMP280;45905;50.570;10.428;2024-01-25T06:16:56;98791.81;;;7.07
61977;BMP280;45905;50.570;10.428;2024-01-25T06:19:24;98796.16;;;7.05
61977;BMP280;45905;50.570;10.428;2024-01-25T06:21:52;98792.13;;;7.03
61977;BMP280;45905;50.570;10.428;2024-01-25T06:24:20;98797.97;;;7.04
61977;BMP280;45905;50.570;10.428;2024-01-25T06:26:47;98802.09;;;7.04
61977;BMP280;45905;50.570;10.428;2024-01-25T06:29:15;98800.50;;;7.04
61977;BMP280;45905;50.570;10.428;2024-01-25T06:31:43;98800.38;;;7.05
61977;BMP280;45905;50.570;10.428;2024-01-25T06:34:11;98811.97;;;7.07
61977;BMP280;45905;50.570;10.428;2024-01-25T06:36:40;98818.13;;;7.04
61977;BMP280;45905;50.570;10.428;2024-01-25T06:39:08;98818.94;;;7.04
61977;BMP280;45905;50.570;10.428;2024-01-25T06:41:36;98814.00;;;7.03
61977;BMP280;45905;50.570;10.428;2024-01-25T06:44:03;98838.97;;;7.05
61977;BMP280;45905;50.570;10.428;2024-01-25T06:46:31;98846.44;;;7.07
61977;BMP280;45905;50.570;10.428;2024-01-25T06:48:59;98854.00;;;7.07
61977;BMP280;45905;50.570;10.428;2024-01-25T06:51:27;98862.34;;;7.07
61977;BMP280;45905;50.570;10.428;2024-01-25T06:53:54;98867.41;;;7.07
61977;BMP280;45905;50.570;10.428;2024-01-25T06:56:22;98875.06;;;7.06
61977;BMP280;45905;50.570;10.428;2024-01-25T06:58:49;98869.88;;;6.97
61977;BMP280;45905;50.570;10.428;2024-01-25T07:01:22;98886.91;;;6.93
61977;BMP280;45905;50.570;10.428;2024-01-25T07:03:50;98890.94;;;6.96
61977;BMP280;45905;50.570;10.428;2024-01-25T07:06:19;98884.19;;;6.96
61977;BMP280;45905;50.570;10.428;2024-01-25T07:08:46;98881.78;;;6.95
61977;BMP280;45905;50.570;10.428;2024-01-25T07:11:13;98875.81;;;6.96
61977;BMP280;45905;50.570;10.428;2024-01-25T07:13:41;98875.81;;;6.96
61977;BMP280;45905;50.570;10.428;2024-01-25T07:16:09;98875.81;;;6.96
61977;BMP280;45905;50.570;10.428;2024-01-25T07:18:36;98869.06;;;6.96
61977;BMP280;45905;50.570;10.428;2024-01-25T07:21:04;98881.66;;;6.96
61977;BMP280;45905;50.570;10.428;2024-01-25T07:23:33;98882.78;;;6.92
61977;BMP280;45905;50.570;10.428;2024-01-25T07:26:01;98877.88;;;6.91
61977;BMP280;45905;50.570;10.428;2024-01-25T07:28:28;98876.50;;;6.87
61977;BMP280;45905;50.570;10.428;2024-01-25T07:30:56;98882.44;;;6.86
61977;BMP280;45905;50.570;10.428;2024-01-25T07:33:23;98886.09;;;6.82
61977;BMP280;45905;50.570;10.428;2024-01-25T07:35:52;98894.56;;;6.81
61977;BMP280;45905;50.570;10.428;2024-01-25T07:38:20;98887.00;;;6.81
61977;BMP280;45905;50.570;10.428;2024-01-25T07:40:47;98882.19;;;6.78
61977;BMP280;45905;50.570;10.428;2024-01-25T07:43:15;98895.59;;;6.79
61977;BMP280;45905;50.570;10.428;2024-01-25T07:45:42;98893.88;;;6.79
61977;BMP280;45905;50.570;10.428;2024-01-25T07:48:10;98904.63;;;6.81
61977;BMP280;45905;50.570;10.428;2024-01-25T07:50:42;98911.28;;;6.82
61977;BMP280;45905;50.570;10.428;2024-01-25T07:53:10;98913.66;;;6.84
61977;BMP280;45905;50.570;10.428;2024-01-25T07:55:40;98915.19;;;6.86
61977;BMP280;45905;50.570;10.428;2024-01-25T07:58:07;98914.47;;;6.84
61977;BMP280;45905;50.570;10.428;2024-01-25T08:00:35;98912.19;;;6.81
61977;BMP280;45905;50.570;10.428;2024-01-25T08:03:03;98928.31;;;6.79
61977;BMP280;45905;50.570;10.428;2024-01-25T08:05:31;98921.78;;;6.76
61977;BMP280;45905;50.570;10.428;2024-01-25T08:08:11;98926.09;;;6.74
61977;BMP280;45905;50.570;10.428;2024-01-25T08:10:39;98935.50;;;6.72
61977;BMP280;45905;50.570;10.428;2024-01-25T08:13:08;98932.28;;;6.70
61977;BMP280;45905;50.570;10.428;2024-01-25T08:15:35;98930.78;;;6.68
61977;BMP280;45905;50.570;10.428;2024-01-25T08:18:04;98932.59;;;6.66
61977;BMP280;45905;50.570;10.428;2024-01-25T08:20:31;98934.09;;;6.68
61977;BMP280;45905;50.570;10.428;2024-01-25T08:22:59;98927.47;;;6.67
61977;BMP280;45905;50.570;10.428;2024-01-25T08:25:27;98935.00;;;6.67
61977;BMP280;45905;50.570;10.428;2024-01-25T08:27:55;98940.84;;;6.68
61977;BMP280;45905;50.570;10.428;2024-01-25T08:30:23;98946.69;;;6.68
61977;BMP280;45905;50.570;10.428;2024-01-25T08:32:50;98955.16;;;6.67
61977;BMP280;45905;50.570;10.428;2024-01-25T08:35:19;98945.88;;;6.68
61977;BMP280;45905;50.570;10.428;2024-01-25T08:37:47;98951.72;;;6.68
61977;BMP280;45905;50.570;10.428;2024-01-25T08:40:15;98960.78;;;6.71
61977;BMP280;45905;50.570;10.428;2024-01-25T08:42:43;98960.78;;;6.71
61977;BMP280;45905;50.570;10.428;2024-01-25T08:45:10;98958.97;;;6.73
61977;BMP280;45905;50.570;10.428;2024-01-25T08:47:44;98959.44;;;6.78
61977;BMP280;45905;50.570;10.428;2024-01-25T08:50:12;98954.22;;;6.81
61977;BMP280;45905;50.570;10.428;2024-01-25T08:52:40;98960.63;;;6.85
61977;BMP280;45905;50.570;10.428;2024-01-25T08:55:08;98967.16;;;6.87
61977;BMP280;45905;50.570;10.428;2024-01-25T08:57:39;98966.06;;;6.91
61977;BMP280;45905;50.570;10.428;2024-01-25T09:00:09;98969.94;;;6.95
61977;BMP280;45905;50.570;10.428;2024-01-25T09:02:38;98958.34;;;6.92
61977;BMP280;45905;50.570;10.428;2024-01-25T09:05:06;98963.78;;;6.99
61977;BMP280;45905;50.570;10.428;2024-01-25T09:07:34;98968.81;;;6.99
61977;BMP280;45905;50.570;10.428;2024-01-25T09:10:03;98980.28;;;7.03
61977;BMP280;45905;50.570;10.428;2024-01-25T09:12:34;98979.28;;;7.05
61977;BMP280;45905;50.570;10.428;2024-01-25T09:15:02;98977.66;;;7.04
61977;BMP280;45905;50.570;10.428;2024-01-25T09:17:30;98981.69;;;7.06
61977;BMP280;45905;50.570;10.428;2024-01-25T09:19:58;98974.03;;;7.08
61977;BMP280;45905;50.570;10.428;2024-01-25T09:22:28;98988.22;;;7.09
61977;BMP280;45905;50.570;10.428;2024-01-25T09:24:56;98985.56;;;7.10
61977;BMP280;45905;50.570;10.428;2024-01-25T09:27:24;98988.00;;;7.12
61977;BMP280;45905;50.570;10.428;2024-01-25T09:29:53;98987.91;;;7.13
61977;BMP280;45905;50.570;10.428;2024-01-25T09:32:21;98994.53;;;7.14
61977;BMP280;45905;50.570;10.428;2024-01-25T09:34:49;98998.78;;;7.14
61977;BMP280;45905;50.570;10.428;2024-01-25T09:37:17;98992.72;;;7.16
61977;BMP280;45905;50.570;10.428;2024-01-25T09:39:45;98986.06;;;7.15
61977;BMP280;45905;50.570;10.428;2024-01-25T09:42:13;98986.97;;;7.14
61977;BMP280;45905;50.570;10.428;2024-01-25T09:44:42;98985.28;;;7.15
61977;BMP280;45905;50.570;10.428;2024-01-25T09:47:11;98991.91;;;7.16
61977;BMP280;45905;50.570;10.428;2024-01-25T09:49:41;98999.38;;;7.17
61977;BMP280;45905;50.570;10.428;2024-01-25T09:52:13;99000.84;;;7.20
61977;BMP280;45905;50.570;10.428;2024-01-25T09:54:40;98995.72;;;7.21
61977;BMP280;45905;50.570;10.428;2024-01-25T09:57:24;99008.31;;;7.21
61977;BMP280;45905;50.570;10.428;2024-01-25T09:59:51;99009.22;;;7.20
61977;BMP280;45905;50.570;10.428;2024-01-25T10:02:21;99028.97;;;7.26
61977;BMP280;45905;50.570;10.428;2024-01-25T10:04:50;99025.28;;;7.30
61977;BMP280;45905;50.570;10.428;2024-01-25T10:07:42;99028.53;;;7.32
61977;BMP280;45905;50.570;10.428;2024-01-25T10:10:13;99015.72;;;7.35
61977;BMP280;45905;50.570;10.428;2024-01-25T10:12:42;99022.13;;;7.39
61977;BMP280;45905;50.570;10.428;2024-01-25T10:15:10;99011.13;;;7.40
61977;BMP280;45905;50.570;10.428;2024-01-25T10:17:39;99018.59;;;7.41
61977;BMP280;45905;50.570;10.428;2024-01-25T10:20:26;99016.53;;;7.46
61977;BMP280;45905;50.570;10.428;2024-01-25T10:22:58;99011.47;;;7.46
61977;BMP280;45905;50.570;10.428;2024-01-25T10:25:28;99007.03;;;7.49
61977;BMP280;45905;50.570;10.428;2024-01-25T10:27:57;99004.31;;;7.52
61977;BMP280;45905;50.570;10.428;2024-01-25T10:30:26;99002.25;;;7.57
61977;BMP280;45905;50.570;10.428;2024-01-25T10:32:55;99006.38;;;7.58
61977;BMP280;45905;50.570;10.428;2024-01-25T10:35:28;98995.47;;;7.58
61977;BMP280;45905;50.570;10.428;2024-01-25T10:37:57;98991.03;;;7.61
61977;BMP280;45905;50.570;10.428;2024-01-25T10:40:27;99002.47;;;7.65
61977;BMP280;45905;50.570;10.428;2024-01-25T10:42:55;99003.19;;;7.67
61977;BMP280;45905;50.570;10.428;2024-01-25T10:45:23;98988.97;;;7.66
61977;BMP280;45905;50.570;10.428;2024-01-25T10:47:51;98987.56;;;7.62
61977;BMP280;45905;50.570;10.428;2024-01-25T10:50:19;98987.56;;;7.62
61977;BMP280;45905;50.570;10.428;2024-01-25T10:52:47;98981.16;;;7.58
61977;BMP280;45905;50.570;10.428;2024-01-25T10:55:17;98987.56;;;7.62
61977;BMP280;45905;50.570;10.428;2024-01-25T10:57:45;98986.75;;;7.61
61977;BMP280;45905;50.570;10.428;2024-01-25T11:00:17;98999.25;;;7.63
61977;BMP280;45905;50.570;10.428;2024-01-25T11:02:45;98986.75;;;7.61
61977;BMP280;45905;50.570;10.428;2024-01-25T11:05:17;99000.66;;;7.67
61977;BMP280;45905;50.570;10.428;2024-01-25T11:07:50;98997.22;;;7.68
61977;BMP280;45905;50.570;10.428;2024-01-25T11:10:20;98999.84;;;7.66
61977;BMP280;45905;50.570;10.428;2024-01-25T11:12:55;99003.88;;;7.69
61977;BMP280;45905;50.570;10.428;2024-01-25T11:15:32;98987.59;;;7.73
61977;BMP280;45905;50.570;10.428;2024-01-25T11:18:03;98987.16;;;7.79
61977;BMP280;45905;50.570;10.428;2024-01-25T11:20:31;98994.47;;;7.81
61977;BMP280;45905;50.570;10.428;2024-01-25T11:23:02;98999.53;;;7.81
61977;BMP280;45905;50.570;10.428;2024-01-25T11:25:32;98999.31;;;7.84
61977;BMP280;45905;50.570;10.428;2024-01-25T11:28:03;99001.72;;;7.86
61977;BMP280;45905;50.570;10.428;2024-01-25T11:30:33;98995.63;;;7.88
61977;BMP280;45905;50.570;10.428;2024-01-25T11:33:04;99000.25;;;7.94
61977;BMP280;45905;50.570;10.428;2024-01-25T11:35:33;98996.13;;;7.93
61977;BMP280;45905;50.570;10.428;2024-01-25T11:38:01;98992.44;;;7.86
61977;BMP280;45905;50.570;10.428;2024-01-25T11:40:29;98995.53;;;7.90
61977;BMP280;45905;50.570;10.428;2024-01-25T11:43:05;99005.03;;;7.97
61977;BMP280;45905;50.570;10.428;2024-01-25T11:45:39;98996.38;;;8.01
61977;BMP280;45905;50.570;10.428;2024-01-25T11:48:11;98998.53;;;8.05
61977;BMP280;45905;50.570;10.428;2024-01-25T11:50:39;98990.19;;;8.05
61977;BMP280;45905;50.570;10.428;2024-01-25T11:53:07;98992.47;;;8.08
61977;BMP280;45905;50.570;10.428;2024-01-25T11:55:36;98996.59;;;8.09
61977;BMP280;45905;50.570;10.428;2024-01-25T11:58:04;98979.75;;;8.09
61977;BMP280;45905;50.570;10.428;2024-01-25T12:00:32;98982.59;;;8.16
61977;BMP280;45905;50.570;10.428;2024-01-25T12:03:00;98981.69;;;8.17
61977;BMP280;45905;50.570;10.428;2024-01-25T12:05:27;98987.53;;;8.17
61977;BMP280;45905;50.570;10.428;2024-01-25T12:07:55;98992.59;;;8.17
61977;BMP280;45905;50.570;10.428;2024-01-25T12:10:23;98977.34;;;8.19
61977;BMP280;45905;50.570;10.428;2024-01-25T12:12:53;98978.38;;;8.16
61977;BMP280;45905;50.570;10.428;2024-01-25T12:15:23;98981.00;;;8.15
61977;BMP280;45905;50.570;10.428;2024-01-25T12:17:50;98995.69;;;8.10
61977;BMP280;45905;50.570;10.428;2024-01-25T12:20:17;98988.13;;;8.10
61977;BMP280;45905;50.570;10.428;2024-01-25T12:22:48;98981.94;;;8.14
61977;BMP280;45905;50.570;10.428;2024-01-25T12:25:16;98973.22;;;8.18
61977;BMP280;45905;50.570;10.428;2024-01-25T12:27:44;98972.97;;;8.20
61977;BMP280;45905;50.570;10.428;2024-01-25T12:30:15;98974.81;;;8.19
61977;BMP280;45905;50.570;10.428;2024-01-25T12:32:43;98972.28;;;8.19
61977;BMP280;45905;50.570;10.428;2024-01-25T12:35:11;98978.03;;;8.20
61977;BMP280;45905;50.570;10.428;2024-01-25T12:37:39;98971.38;;;8.19
61977;BMP280;45905;50.570;10.428;2024-01-25T12:40:07;98973.22;;;8.18
61977;BMP280;45905;50.570;10.428;2024-01-25T12:42:35;98961.75;;;8.14
61977;BMP280;45905;50.570;10.428;2024-01-25T12:45:03;98960.13;;;8.13
61977;BMP280;45905;50.570;10.428;2024-01-25T12:47:31;98961.97;;;8.11
61977;BMP280;45905;50.570;10.428;2024-01-25T12:49:59;98973.44;;;8.15
61977;BMP280;45905;50.570;10.428;2024-01-25T12:52:29;98961.75;;;8.14
61977;BMP280;45905;50.570;10.428;2024-01-25T12:54:57;98953.38;;;8.13
61977;BMP280;45905;50.570;10.428;2024-01-25T12:57:25;98940.88;;;8.12
61977;BMP280;45905;50.570;10.428;2024-01-25T12:59:53;98951.66;;;8.14
61977;BMP280;45905;50.570;10.428;2024-01-25T13:02:21;98947.97;;;8.18
61977;BMP280;45905;50.570;10.428;2024-01-25T13:04:48;98958.75;;;8.19
61977;BMP280;45905;50.570;10.428;2024-01-25T13:07:18;98943.25;;;8.24
61977;BMP280;45905;50.570;10.428;2024-01-25T13:09:46;98939.69;;;8.26
61977;BMP280;45905;50.570;10.428;2024-01-25T13:12:13;98923.31;;;8.21
61977;BMP280;45905;50.570;10.428;2024-01-25T13:14:41;98921.69;;;8.20
61977;BMP280;45905;50.570;10.428;2024-01-25T13:17:08;98923.19;;;8.22
61977;BMP280;45905;50.570;10.428;2024-01-25T13:19:36;98933.16;;;8.24
61977;BMP280;45905;50.570;10.428;2024-01-25T13:22:04;98933.03;;;8.25
61977;BMP280;45905;50.570;10.428;2024-01-25T13:24:31;98935.34;;;8.28
61977;BMP280;45905;50.570;10.428;2024-01-25T13:26:59;98933.94;;;8.24
61977;BMP280;45905;50.570;10.428;2024-01-25T13:29:26;98932.59;;;8.20
61977;BMP280;45905;50.570;10.428;2024-01-25T13:31:54;98925.13;;;8.19
61977;BMP280;45905;50.570;10.428;2024-01-25T13:34:21;98923.19;;;8.22
61977;BMP280;45905;50.570;10.428;2024-01-25T13:36:49;98914.34;;;8.28
61977;BMP280;45905;50.570;10.428;2024-01-25T13:39:16;98913.31;;;8.30
61977;BMP280;45905;50.570;10.428;2024-01-25T13:41:44;98904.81;;;8.31
61977;BMP280;45905;50.570;10.428;2024-01-25T13:44:14;98909.38;;;8.37
61977;BMP280;45905;50.570;10.428;2024-01-25T13:46:42;98911.53;;;8.41
61977;BMP280;45905;50.570;10.428;2024-01-25T13:49:10;98908.00;;;8.44
61977;BMP280;45905;50.570;10.428;2024-01-25T13:51:37;98907.50;;;8.50
61977;BMP280;45905;50.570;10.428;2024-01-25T13:54:05;98913.94;;;8.54
61977;BMP280;45905;50.570;10.428;2024-01-25T13:56:33;98907.97;;;8.55
61977;BMP280;45905;50.570;10.428;2024-01-25T13:59:01;98914.63;;;8.56
61977;BMP280;45905;50.570;10.428;2024-01-25T14:01:28;98918.75;;;8.57
61977;BMP280;45905;50.570;10.428;2024-01-25T14:03:56;98915.16;;;8.59
61977;BMP280;45905;50.570;10.428;2024-01-25T14:06:24;98917.84;;;8.57
61977;BMP280;45905;50.570;10.428;2024-01-25T14:08:52;98917.38;;;8.53
61977;BMP280;45905;50.570;10.428;2024-01-25T14:11:20;98910.28;;;8.47
61977;BMP280;45905;50.570;10.428;2024-01-25T14:13:47;98906.25;;;8.44
61977;BMP280;45905;50.570;10.428;2024-01-25T14:16:16;98912.34;;;8.42